sensor_id;sensor_type;location;lat;lon;timestamp;pressure;altitude;pressure_sealevel;temperature;humidity
59435;BME280;45241;49.768;8.636;2022-10-31T00:01:50;100620.59;;;15.64;94.54
59435;BME280;45241;49.768;8.636;2022-10-31T00:04:15;100621.66;;;16.01;92.84
59435;BME280;45241;49.768;8.636;2022-10-31T00:06:40;100624.63;;;16.24;90.44
59435;BME280;45241;49.768;8.636;2022-10-31T00:09:06;100622.53;;;16.26;91.30
59435;BME280;45241;49.768;8.636;2022-10-31T00:11:31;100623.53;;;15.49;94.42
59435;BME280;45241;49.768;8.636;2022-10-31T00:13:57;100622.31;;;15.96;91.32
59435;BME280;45241;49.768;8.636;2022-10-31T00:16:23;100623.66;;;16.12;91.30
59435;BME280;45241;49.768;8.636;2022-10-31T00:18:52;100626.91;;;15.96;90.59
59435;BME280;45241;49.768;8.636;2022-10-31T00:21:17;100632.09;;;15.97;89.62
59435;BME280;45241;49.768;8.636;2022-10-31T00:23:42;100628.03;;;15.75;91.36
59435;BME280;45241;49.768;8.636;2022-10-31T00:26:08;100638.31;;;15.98;90.80
59435;BME280;45241;49.768;8.636;2022-10-31T00:28:33;100638.94;;;15.93;90.51
59435;BME280;45241;49.768;8.636;2022-10-31T00:31:02;100641.31;;;15.76;91.28
59435;BME280;45241;49.768;8.636;2022-10-31T00:33:27;100647.25;;;15.98;89.59
59435;BME280;45241;49.768;8.636;2022-10-31T00:35:53;100647.66;;;16.02;89.92
59435;BME280;45241;49.768;8.636;2022-10-31T00:38:18;100655.09;;;16.06;89.11
59435;BME280;45241;49.768;8.636;2022-10-31T00:40:43;100641.78;;;16.05;89.01
59435;BME280;45241;49.768;8.636;2022-10-31T00:43:09;100648.22;;;16.10;89.58
59435;BME280;45241;49.768;8.636;2022-10-31T00:45:34;100657.25;;;15.98;89.83
59435;BME280;45241;49.768;8.636;2022-10-31T00:47:59;100650.84;;;15.85;91.28
59435;BME280;45241;49.768;8.636;2022-10-31T00:50:24;100662.50;;;15.79;90.38
59435;BME280;45241;49.768;8.636;2022-10-31T00:52:49;100657.53;;;15.76;89.88
59435;BME280;45241;49.768;8.636;2022-10-31T00:55:15;100656.50;;;15.77;90.05
59435;BME280;45241;49.768;8.636;2022-10-31T00:57:40;100655.44;;;15.85;88.56
59435;BME280;45241;49.768;8.636;2022-10-31T01:00:05;100651.69;;;15.79;88.13
59435;BME280;45241;49.768;8.636;2022-10-31T01:02:30;100655.44;;;15.85;87.97
59435;BME280;45241;49.768;8.636;2022-10-31T01:04:56;100653.59;;;15.79;87.32
59435;BME280;45241;49.768;8.636;2022-10-31T01:07:21;100657.09;;;15.79;88.28
59435;BME280;45241;49.768;8.636;2022-10-31T01:09:46;100655.72;;;15.70;87.77
59435;BME280;45241;49.768;8.636;2022-10-31T01:12:11;100660.94;;;15.52;88.60
59435;BME280;45241;49.768;8.636;2022-10-31T01:14:36;100663.66;;;15.59;88.17
59435;BME280;45241;49.768;8.636;2022-10-31T01:17:02;100656.56;;;15.64;89.61
59435;BME280;45241;49.768;8.636;2022-10-31T01:19:27;100653.06;;;15.57;88.61
59435;BME280;45241;49.768;8.636;2022-10-31T01:21:53;100653.06;;;15.57;89.42
59435;BME280;45241;49.768;8.636;2022-10-31T01:24:19;100655.56;;;15.59;89.10
59435;BME280;45241;49.768;8.636;2022-10-31T01:26:44;100652.66;;;15.47;89.10
59435;BME280;45241;49.768;8.636;2022-10-31T01:29:09;100654.78;;;15.25;89.76
59435;BME280;45241;49.768;8.636;2022-10-31T01:31:36;100651.63;;;15.41;89.51
59435;BME280;45241;49.768;8.636;2022-10-31T01:34:02;100653.47;;;15.54;88.68
59435;BME280;45241;49.768;8.636;2022-10-31T01:36:31;100652.25;;;15.57;88.56
59435;BME280;45241;49.768;8.636;2022-10-31T01:38:57;100658.03;;;15.60;89.25
59435;BME280;45241;49.768;8.636;2022-10-31T01:41:24;100656.41;;;15.46;89.68
59435;BME280;45241;49.768;8.636;2022-10-31T01:43:58;100661.38;;;15.49;89.21
59435;BME280;45241;49.768;8.636;2022-10-31T01:48:48;100659.09;;;15.46;89.30
59435;BME280;45241;49.768;8.636;2022-10-31T01:51:14;100651.41;;;15.56;89.11
59435;BME280;45241;49.768;8.636;2022-10-31T01:53:41;100653.47;;;15.61;88.27
59435;BME280;45241;49.768;8.636;2022-10-31T01:56:07;100646.81;;;15.50;89.53
59435;BME280;45241;49.768;8.636;2022-10-31T01:58:33;100644.53;;;15.47;88.95
59435;BME280;45241;49.768;8.636;2022-10-31T02:00:58;100646.03;;;15.43;89.35
59435;BME280;45241;49.768;8.636;2022-10-31T02:03:25;100646.03;;;15.43;89.54
59435;BME280;45241;49.768;8.636;2022-10-31T02:05:50;100645.63;;;15.33;89.28
59435;BME280;45241;49.768;8.636;2022-10-31T02:08:30;100637.50;;;15.39;90.06
59435;BME280;45241;49.768;8.636;2022-10-31T02:10:56;100645.38;;;15.41;90.02
59435;BME280;45241;49.768;8.636;2022-10-31T02:13:22;100636.44;;;15.47;90.18
59435;BME280;45241;49.768;8.636;2022-10-31T02:15:52;100629.34;;;15.52;89.95
59435;BME280;45241;49.768;8.636;2022-10-31T02:18:17;100631.47;;;15.44;90.03
59435;BME280;45241;49.768;8.636;2022-10-31T02:26:03;100620.66;;;15.57;88.94
59435;BME280;45241;49.768;8.636;2022-10-31T02:33:51;100621.66;;;15.63;90.05
59435;BME280;45241;49.768;8.636;2022-10-31T02:39:25;100619.63;;;15.38;90.40
59435;BME280;45241;49.768;8.636;2022-10-31T02:42:06;100620.66;;;15.44;90.55
59435;BME280;45241;49.768;8.636;2022-10-31T02:47:03;100615.28;;;15.37;90.64
59435;BME280;45241;49.768;8.636;2022-10-31T02:49:47;100618.56;;;15.46;90.08
59435;BME280;45241;49.768;8.636;2022-10-31T02:52:14;100613.38;;;15.44;90.18
59435;BME280;45241;49.768;8.636;2022-10-31T02:54:39;100617.13;;;15.43;90.78
59435;BME280;45241;49.768;8.636;2022-10-31T02:57:05;100618.41;;;15.27;91.47
59435;BME280;45241;49.768;8.636;2022-10-31T02:59:32;100621.72;;;15.43;90.07
59435;BME280;45241;49.768;8.636;2022-10-31T03:02:13;100621.50;;;15.44;89.46
59435;BME280;45241;49.768;8.636;2022-10-31T03:09:53;100618.41;;;15.34;90.12
59435;BME280;45241;49.768;8.636;2022-10-31T03:12:45;100626.06;;;15.37;89.30
59435;BME280;45241;49.768;8.636;2022-10-31T03:15:23;100615.25;;;15.44;88.65
59435;BME280;45241;49.768;8.636;2022-10-31T03:17:51;100616.47;;;15.54;91.00
59435;BME280;45241;49.768;8.636;2022-10-31T03:20:20;100630.16;;;15.53;89.89
59435;BME280;45241;49.768;8.636;2022-10-31T03:22:46;100624.16;;;15.51;89.48
59435;BME280;45241;49.768;8.636;2022-10-31T03:25:12;100622.38;;;15.32;90.09
59435;BME280;45241;49.768;8.636;2022-10-31T03:27:38;100621.13;;;15.27;90.28
59435;BME280;45241;49.768;8.636;2022-10-31T03:30:05;100629.66;;;15.24;91.03
59435;BME280;45241;49.768;8.636;2022-10-31T03:32:40;100624.84;;;15.26;91.11
59435;BME280;45241;49.768;8.636;2022-10-31T03:35:08;100626.69;;;15.39;89.62
59435;BME280;45241;49.768;8.636;2022-10-31T03:37:34;100617.19;;;15.30;90.63
59435;BME280;45241;49.768;8.636;2022-10-31T03:40:01;100606.22;;;15.18;91.79
59435;BME280;45241;49.768;8.636;2022-10-31T03:42:29;100608.69;;;15.20;92.59
59435;BME280;45241;49.768;8.636;2022-10-31T03:44:57;100607.25;;;15.11;91.89
59435;BME280;45241;49.768;8.636;2022-10-31T03:47:24;100611.00;;;15.16;91.59
59435;BME280;45241;49.768;8.636;2022-10-31T03:49:49;100608.03;;;15.24;90.82
59435;BME280;45241;49.768;8.636;2022-10-31T03:52:25;100607.22;;;15.31;90.79
59435;BME280;45241;49.768;8.636;2022-10-31T03:55:02;100607.44;;;15.22;90.69
59435;BME280;45241;49.768;8.636;2022-10-31T04:00:00;100605.94;;;15.26;90.33
59435;BME280;45241;49.768;8.636;2022-10-31T04:02:28;100600.97;;;15.23;90.54
59435;BME280;45241;49.768;8.636;2022-10-31T04:04:54;100589.38;;;15.16;90.73
59435;BME280;45241;49.768;8.636;2022-10-31T04:07:20;100594.16;;;15.14;91.40
59435;BME280;45241;49.768;8.636;2022-10-31T04:09:47;100591.25;;;15.09;91.87
59435;BME280;45241;49.768;8.636;2022-10-31T04:12:15;100591.19;;;15.29;91.07
59435;BME280;45241;49.768;8.636;2022-10-31T04:14:41;100588.69;;;15.27;90.44
59435;BME280;45241;49.768;8.636;2022-10-31T04:17:09;100589.81;;;15.07;91.80
59435;BME280;45241;49.768;8.636;2022-10-31T04:19:34;100590.47;;;14.95;92.62
59435;BME280;45241;49.768;8.636;2022-10-31T04:21:59;100589.84;;;14.87;93.81
59435;BME280;45241;49.768;8.636;2022-10-31T04:24:25;100592.53;;;15.00;91.99
59435;BME280;45241;49.768;8.636;2022-10-31T04:26:50;100590.84;;;15.12;91.86
59435;BME280;45241;49.768;8.636;2022-10-31T04:29:15;100594.00;;;14.89;92.36
59435;BME280;45241;49.768;8.636;2022-10-31T04:31:40;100595.53;;;14.52;95.81
59435;BME280;45241;49.768;8.636;2022-10-31T04:34:05;100600.22;;;14.96;93.41
59435;BME280;45241;49.768;8.636;2022-10-31T04:36:32;100595.88;;;14.89;93.55
59435;BME280;45241;49.768;8.636;2022-10-31T04:38:57;100604.13;;;15.14;91.07
59435;BME280;45241;49.768;8.636;2022-10-31T04:41:22;100603.09;;;15.08;91.29
59435;BME280;45241;49.768;8.636;2022-10-31T04:43:47;100602.56;;;14.80;94.26
59435;BME280;45241;49.768;8.636;2022-10-31T04:46:13;100602.53;;;14.93;94.00
59435;BME280;45241;49.768;8.636;2022-10-31T04:48:38;100612.91;;;14.96;92.44
59435;BME280;45241;49.768;8.636;2022-10-31T04:51:03;100611.63;;;15.05;91.83
59435;BME280;45241;49.768;8.636;2022-10-31T04:53:28;100608.31;;;14.96;92.51
59435;BME280;45241;49.768;8.636;2022-10-31T04:55:54;100609.38;;;14.95;92.66
59435;BME280;45241;49.768;8.636;2022-10-31T04:58:19;100609.59;;;14.94;91.02
59435;BME280;45241;49.768;8.636;2022-10-31T05:00:44;100614.41;;;14.65;94.37
59435;BME280;45241;49.768;8.636;2022-10-31T05:03:09;100608.34;;;14.83;92.88
59435;BME280;45241;49.768;8.636;2022-10-31T05:05:34;100610.19;;;14.96;92.22
59435;BME280;45241;49.768;8.636;2022-10-31T05:08:00;100609.78;;;14.99;92.04
59435;BME280;45241;49.768;8.636;2022-10-31T05:10:26;100595.03;;;14.88;91.10
59435;BME280;45241;49.768;8.636;2022-10-31T05:12:55;100610.41;;;14.94;91.63
59435;BME280;45241;49.768;8.636;2022-10-31T05:15:21;100608.13;;;14.85;91.67
59435;BME280;45241;49.768;8.636;2022-10-31T05:17:47;100596.75;;;14.70;92.99
59435;BME280;45241;49.768;8.636;2022-10-31T05:20:13;100599.84;;;14.60;93.92
59435;BME280;45241;49.768;8.636;2022-10-31T05:22:46;100604.63;;;14.45;94.86
59435;BME280;45241;49.768;8.636;2022-10-31T05:25:11;100605.25;;;14.66;93.33
59435;BME280;45241;49.768;8.636;2022-10-31T05:27:40;100608.56;;;14.62;92.52
59435;BME280;45241;49.768;8.636;2022-10-31T05:30:06;100604.84;;;14.70;92.15
59435;BME280;45241;49.768;8.636;2022-10-31T05:32:36;100593.66;;;14.66;92.48
59435;BME280;45241;49.768;8.636;2022-10-31T05:35:01;100609.63;;;14.54;92.47
59435;BME280;45241;49.768;8.636;2022-10-31T05:37:26;100597.38;;;14.58;91.70
59435;BME280;45241;49.768;8.636;2022-10-31T05:39:51;100598.41;;;14.57;92.02
59435;BME280;45241;49.768;8.636;2022-10-31T05:42:17;100598.59;;;14.62;91.71
59435;BME280;45241;49.768;8.636;2022-10-31T05:44:42;100589.47;;;14.63;91.34
59435;BME280;45241;49.768;8.636;2022-10-31T05:47:07;100602.97;;;14.63;91.03
59435;BME280;45241;49.768;8.636;2022-10-31T05:49:32;100599.25;;;14.64;91.42
59435;BME280;45241;49.768;8.636;2022-10-31T05:51:57;100598.00;;;14.60;90.80
59435;BME280;45241;49.768;8.636;2022-10-31T05:54:23;100592.59;;;14.34;91.81
59435;BME280;45241;49.768;8.636;2022-10-31T05:56:48;100602.16;;;14.43;91.35
59435;BME280;45241;49.768;8.636;2022-10-31T05:59:13;100602.50;;;14.00;94.22
59435;BME280;45241;49.768;8.636;2022-10-31T06:01:38;100613.69;;;14.04;94.50
59435;BME280;45241;49.768;8.636;2022-10-31T06:04:03;100604.19;;;14.21;92.82
59435;BME280;45241;49.768;8.636;2022-10-31T06:06:29;100610.44;;;14.28;92.30
59435;BME280;45241;49.768;8.636;2022-10-31T06:08:54;100607.91;;;14.14;92.36
59435;BME280;45241;49.768;8.636;2022-10-31T06:11:19;100603.75;;;14.18;92.38
59435;BME280;45241;49.768;8.636;2022-10-31T06:13:44;100602.09;;;14.17;92.05
59435;BME280;45241;49.768;8.636;2022-10-31T06:16:09;100605.41;;;14.05;92.45
59435;BME280;45241;49.768;8.636;2022-10-31T06:18:35;100603.16;;;14.16;92.11
59435;BME280;45241;49.768;8.636;2022-10-31T06:21:00;100604.59;;;14.25;91.62
59435;BME280;45241;49.768;8.636;2022-10-31T06:23:25;100599.59;;;14.22;91.56
59435;BME280;45241;49.768;8.636;2022-10-31T06:25:50;100600.44;;;14.22;90.45
59435;BME280;45241;49.768;8.636;2022-10-31T06:28:16;100599.59;;;14.08;91.15
59435;BME280;45241;49.768;8.636;2022-10-31T06:30:41;100597.31;;;14.05;90.86
59435;BME280;45241;49.768;8.636;2022-10-31T06:33:06;100590.25;;;14.11;91.00
59435;BME280;45241;49.768;8.636;2022-10-31T06:35:32;100595.88;;;14.16;90.51
59435;BME280;45241;49.768;8.636;2022-10-31T06:37:57;100600.03;;;14.19;90.43
59435;BME280;45241;49.768;8.636;2022-10-31T06:40:22;100601.47;;;14.01;91.25
59435;BME280;45241;49.768;8.636;2022-10-31T06:42:55;100597.75;;;14.16;90.72
59435;BME280;45241;49.768;8.636;2022-10-31T06:45:20;100592.81;;;14.39;90.13
59435;BME280;45241;49.768;8.636;2022-10-31T06:47:50;100603.81;;;14.57;88.88
59435;BME280;45241;49.768;8.636;2022-10-31T06:50:15;100602.34;;;14.61;88.70
59435;BME280;45241;49.768;8.636;2022-10-31T06:52:40;100601.09;;;14.71;88.20
59435;BME280;45241;49.768;8.636;2022-10-31T06:55:05;100594.44;;;14.80;87.75
59435;BME280;45241;49.768;8.636;2022-10-31T06:57:30;100596.50;;;14.91;88.02
59435;BME280;45241;49.768;8.636;2022-10-31T06:59:56;100604.97;;;15.01;87.23
59435;BME280;45241;49.768;8.636;2022-10-31T07:02:21;100598.31;;;15.10;86.40
59435;BME280;45241;49.768;8.636;2022-10-31T07:04:46;100601.19;;;15.15;87.16
59435;BME280;45241;49.768;8.636;2022-10-31T07:07:11;100612.03;;;15.09;87.76
59435;BME280;45241;49.768;8.636;2022-10-31T07:09:36;100609.94;;;15.11;87.85
59435;BME280;45241;49.768;8.636;2022-10-31T07:12:02;100603.06;;;15.21;88.00
59435;BME280;45241;49.768;8.636;2022-10-31T07:14:27;100607.03;;;15.12;88.62
59435;BME280;45241;49.768;8.636;2022-10-31T07:16:52;100609.94;;;15.17;88.59
59435;BME280;45241;49.768;8.636;2022-10-31T07:19:17;100614.38;;;15.50;87.39
59435;BME280;45241;49.768;8.636;2022-10-31T07:21:43;100610.69;;;15.38;88.30
59435;BME280;45241;49.768;8.636;2022-10-31T07:24:08;100603.19;;;15.46;89.23
59435;BME280;45241;49.768;8.636;2022-10-31T07:26:33;100603.88;;;15.28;89.92
59435;BME280;45241;49.768;8.636;2022-10-31T07:28:58;100604.44;;;15.57;88.46
59435;BME280;45241;49.768;8.636;2022-10-31T07:31:24;100605.69;;;15.48;89.70
59435;BME280;45241;49.768;8.636;2022-10-31T07:33:49;100605.25;;;15.58;90.13
59435;BME280;45241;49.768;8.636;2022-10-31T07:36:15;100608.13;;;15.63;89.89
59435;BME280;45241;49.768;8.636;2022-10-31T07:38:40;100603.78;;;15.62;90.77
59435;BME280;45241;49.768;8.636;2022-10-31T07:41:05;100598.28;;;15.30;94.25
59435;BME280;45241;49.768;8.636;2022-10-31T07:43:30;100610.69;;;15.38;94.12
59435;BME280;45241;49.768;8.636;2022-10-31T07:45:56;100604.91;;;15.85;90.84
59435;BME280;45241;49.768;8.636;2022-10-31T07:48:21;100609.13;;;16.06;89.62
59435;BME280;45241;49.768;8.636;2022-10-31T07:50:46;100610.00;;;16.00;89.74
59435;BME280;45241;49.768;8.636;2022-10-31T07:53:12;100604.84;;;15.92;92.08
59435;BME280;45241;49.768;8.636;2022-10-31T07:55:38;100612.63;;;15.82;93.15
59435;BME280;45241;49.768;8.636;2022-10-31T08:00:28;100610.63;;;16.02;92.54
59435;BME280;45241;49.768;8.636;2022-10-31T08:03:01;100609.94;;;16.38;90.86
59435;BME280;45241;49.768;8.636;2022-10-31T08:05:26;100600.81;;;17.26;85.33
59435;BME280;45241;49.768;8.636;2022-10-31T08:07:52;100589.97;;;16.89;88.31
59435;BME280;45241;49.768;8.636;2022-10-31T08:10:17;100601.19;;;16.11;95.84
59435;BME280;45241;49.768;8.636;2022-10-31T08:12:42;100591.38;;;16.73;92.01
59435;BME280;45241;49.768;8.636;2022-10-31T08:15:08;100589.22;;;17.19;91.13
59435;BME280;45241;49.768;8.636;2022-10-31T08:17:36;100590.66;;;16.28;98.54
59435;BME280;45241;49.768;8.636;2022-10-31T08:20:02;100586.63;;;17.24;92.89
59435;BME280;45241;49.768;8.636;2022-10-31T08:22:27;100582.97;;;18.27;86.32
59435;BME280;45241;49.768;8.636;2022-10-31T08:24:52;100588.19;;;17.98;87.34
59435;BME280;45241;49.768;8.636;2022-10-31T08:27:18;100580.16;;;19.15;82.24
59435;BME280;45241;49.768;8.636;2022-10-31T08:29:43;100584.78;;;18.91;84.14
59435;BME280;45241;49.768;8.636;2022-10-31T08:32:08;100577.44;;;18.33;88.31
59435;BME280;45241;49.768;8.636;2022-10-31T08:34:33;100578.88;;;18.47;88.00
59435;BME280;45241;49.768;8.636;2022-10-31T08:36:58;100587.34;;;17.38;95.65
59435;BME280;45241;49.768;8.636;2022-10-31T08:39:24;100581.94;;;17.68;94.52
59435;BME280;45241;49.768;8.636;2022-10-31T08:41:49;100579.31;;;18.33;89.39
59435;BME280;45241;49.768;8.636;2022-10-31T08:44:15;100571.34;;;17.96;92.97
59435;BME280;45241;49.768;8.636;2022-10-31T08:46:41;100581.50;;;16.79;100.00
59435;BME280;45241;49.768;8.636;2022-10-31T08:49:06;100578.69;;;16.67;100.00
59435;BME280;45241;49.768;8.636;2022-10-31T08:51:31;100573.66;;;16.71;100.00
59435;BME280;45241;49.768;8.636;2022-10-31T08:53:56;100572.34;;;16.80;99.16
59435;BME280;45241;49.768;8.636;2022-10-31T08:56:22;100570.81;;;17.57;95.77
59435;BME280;45241;49.768;8.636;2022-10-31T08:58:47;100568.47;;;16.69;100.00
59435;BME280;45241;49.768;8.636;2022-10-31T09:01:13;100569.59;;;16.37;100.00
59435;BME280;45241;49.768;8.636;2022-10-31T09:03:38;100574.00;;;16.31;100.00
59435;BME280;45241;49.768;8.636;2022-10-31T09:06:03;100576.88;;;16.11;100.00
59435;BME280;45241;49.768;8.636;2022-10-31T09:08:31;100573.72;;;16.39;100.00
59435;BME280;45241;49.768;8.636;2022-10-31T09:10:56;100575.59;;;16.39;100.00
59435;BME280;45241;49.768;8.636;2022-10-31T09:13:23;100582.72;;;16.83;97.54
59435;BME280;45241;49.768;8.636;2022-10-31T09:15:49;100588.69;;;17.28;95.62
59435;BME280;45241;49.768;8.636;2022-10-31T09:18:15;100589.44;;;17.17;95.32
59435;BME280;45241;49.768;8.636;2022-10-31T09:20:41;100590.78;;;17.08;95.13
59435;BME280;45241;49.768;8.636;2022-10-31T09:23:11;100585.50;;;16.95;96.12
59435;BME280;45241;49.768;8.636;2022-10-31T09:25:36;100581.16;;;17.30;92.42
59435;BME280;45241;49.768;8.636;2022-10-31T09:28:02;100582.25;;;17.78;88.87
59435;BME280;45241;49.768;8.636;2022-10-31T09:30:29;100579.81;;;17.40;92.18
59435;BME280;45241;49.768;8.636;2022-10-31T09:33:02;100572.50;;;18.30;90.25
59435;BME280;45241;49.768;8.636;2022-10-31T09:35:27;100576.84;;;18.66;85.84
59435;BME280;45241;49.768;8.636;2022-10-31T09:37:56;100572.00;;;17.13;94.30
59435;BME280;45241;49.768;8.636;2022-10-31T09:40:22;100575.44;;;18.52;88.15
59435;BME280;45241;49.768;8.636;2022-10-31T09:45:24;100570.88;;;18.99;83.64
59435;BME280;45241;49.768;8.636;2022-10-31T09:47:58;100563.63;;;17.15;91.18
59435;BME280;45241;49.768;8.636;2022-10-31T09:53:19;100562.88;;;17.08;97.08
59435;BME280;45241;49.768;8.636;2022-10-31T09:55:47;100560.13;;;17.44;93.96
59435;BME280;45241;49.768;8.636;2022-10-31T09:58:20;100555.97;;;18.67;88.63
59435;BME280;45241;49.768;8.636;2022-10-31T10:00:48;100563.00;;;18.09;87.89
59435;BME280;45241;49.768;8.636;2022-10-31T10:05:57;100568.66;;;18.08;92.40
59435;BME280;45241;49.768;8.636;2022-10-31T10:08:26;100556.13;;;18.84;87.80
59435;BME280;45241;49.768;8.636;2022-10-31T10:10:55;100561.47;;;19.19;84.90
59435;BME280;45241;49.768;8.636;2022-10-31T10:16:22;100553.06;;;19.32;83.15
59435;BME280;45241;49.768;8.636;2022-10-31T10:26:29;100544.50;;;18.53;88.81
59435;BME280;45241;49.768;8.636;2022-10-31T10:29:07;100544.03;;;19.43;83.58
59435;BME280;45241;49.768;8.636;2022-10-31T10:31:37;100543.88;;;19.61;82.20
59435;BME280;45241;49.768;8.636;2022-10-31T10:34:24;100540.16;;;18.87;86.61
59435;BME280;45241;49.768;8.636;2022-10-31T10:37:05;100542.88;;;19.39;84.78
59435;BME280;45241;49.768;8.636;2022-10-31T10:39:41;100537.56;;;19.32;83.62
59435;BME280;45241;49.768;8.636;2022-10-31T10:42:12;100536.84;;;18.97;84.89
59435;BME280;45241;49.768;8.636;2022-10-31T10:44:56;100528.75;;;19.54;82.86
59435;BME280;45241;49.768;8.636;2022-10-31T10:47:41;100526.66;;;20.18;79.75
59435;BME280;45241;49.768;8.636;2022-10-31T10:50:18;100523.75;;;20.41;79.36
59435;BME280;45241;49.768;8.636;2022-10-31T10:52:49;100516.75;;;20.45;79.07
59435;BME280;45241;49.768;8.636;2022-10-31T10:57:55;100516.53;;;20.13;81.44
59435;BME280;45241;49.768;8.636;2022-10-31T11:00:22;100507.06;;;20.54;80.44
59435;BME280;45241;49.768;8.636;2022-10-31T11:02:48;100505.56;;;20.80;79.78
59435;BME280;45241;49.768;8.636;2022-10-31T11:05:25;100498.84;;;20.88;78.60
59435;BME280;45241;49.768;8.636;2022-10-31T11:07:51;100506.59;;;20.41;80.97
59435;BME280;45241;49.768;8.636;2022-10-31T11:10:16;100499.53;;;21.00;79.20
59435;BME280;45241;49.768;8.636;2022-10-31T11:12:43;100498.63;;;20.90;78.48
59435;BME280;45241;49.768;8.636;2022-10-31T11:15:19;100498.75;;;19.77;81.62
59435;BME280;45241;49.768;8.636;2022-10-31T11:17:47;100486.78;;;20.45;80.71
59435;BME280;45241;49.768;8.636;2022-10-31T11:22:43;100477.09;;;20.71;79.82
59435;BME280;45241;49.768;8.636;2022-10-31T11:25:25;100471.72;;;20.60;81.28
59435;BME280;45241;49.768;8.636;2022-10-31T11:28:04;100472.06;;;20.80;79.84
59435;BME280;45241;49.768;8.636;2022-10-31T11:30:30;100453.03;;;20.85;80.01
59435;BME280;45241;49.768;8.636;2022-10-31T11:32:56;100455.31;;;20.16;81.84
59435;BME280;45241;49.768;8.636;2022-10-31T11:35:23;100448.97;;;19.93;81.84
59435;BME280;45241;49.768;8.636;2022-10-31T11:37:49;100458.53;;;19.34;84.73
59435;BME280;45241;49.768;8.636;2022-10-31T11:40:16;100448.38;;;20.64;80.52
59435;BME280;45241;49.768;8.636;2022-10-31T11:42:42;100441.25;;;20.79;79.19
59435;BME280;45241;49.768;8.636;2022-10-31T11:47:49;100435.09;;;21.38;77.11
59435;BME280;45241;49.768;8.636;2022-10-31T11:50:18;100437.66;;;21.23;78.19
59435;BME280;45241;49.768;8.636;2022-10-31T11:52:45;100433.88;;;21.02;78.38
59435;BME280;45241;49.768;8.636;2022-10-31T11:57:45;100423.63;;;21.36;78.10
59435;BME280;45241;49.768;8.636;2022-10-31T12:00:27;100425.88;;;21.44;77.90
59435;BME280;45241;49.768;8.636;2022-10-31T12:05:38;100427.91;;;20.39;82.82
59435;BME280;45241;49.768;8.636;2022-10-31T12:08:06;100429.97;;;20.71;82.59
59435;BME280;45241;49.768;8.636;2022-10-31T12:10:35;100425.47;;;20.04;83.49
59435;BME280;45241;49.768;8.636;2022-10-31T12:15:30;100423.31;;;20.83;81.85
59435;BME280;45241;49.768;8.636;2022-10-31T12:20:53;100416.38;;;19.65;84.93
59435;BME280;45241;49.768;8.636;2022-10-31T12:23:23;100409.16;;;20.43;82.71
59435;BME280;45241;49.768;8.636;2022-10-31T12:31:20;100404.28;;;19.73;85.94
59435;BME280;45241;49.768;8.636;2022-10-31T12:36:24;100403.88;;;19.81;85.77
59435;BME280;45241;49.768;8.636;2022-10-31T12:44:36;100374.69;;;20.97;81.13
59435;BME280;45241;49.768;8.636;2022-10-31T12:52:42;100351.28;;;21.55;82.83
59435;BME280;45241;49.768;8.636;2022-10-31T12:57:50;100337.16;;;20.55;84.28
59435;BME280;45241;49.768;8.636;2022-10-31T13:00:16;100332.28;;;21.38;81.54
59435;BME280;45241;49.768;8.636;2022-10-31T13:05:27;100330.03;;;21.57;79.74
59435;BME280;45241;49.768;8.636;2022-10-31T13:07:58;100322.63;;;20.94;84.39
59435;BME280;45241;49.768;8.636;2022-10-31T13:10:34;100334.69;;;20.32;86.32
59435;BME280;45241;49.768;8.636;2022-10-31T13:13:10;100322.91;;;20.48;84.72
59435;BME280;45241;49.768;8.636;2022-10-31T13:15:53;100318.91;;;21.37;81.43
59435;BME280;45241;49.768;8.636;2022-10-31T13:18:28;100326.50;;;20.76;85.50
59435;BME280;45241;49.768;8.636;2022-10-31T13:20:55;100322.72;;;20.33;86.62
59435;BME280;45241;49.768;8.636;2022-10-31T13:23:30;100322.41;;;20.51;85.71
59435;BME280;45241;49.768;8.636;2022-10-31T13:25:57;100313.72;;;20.54;86.54
59435;BME280;45241;49.768;8.636;2022-10-31T13:30:48;100304.69;;;21.30;82.71
59435;BME280;45241;49.768;8.636;2022-10-31T13:48:58;100265.09;;;20.63;85.18
59435;BME280;45241;49.768;8.636;2022-10-31T13:51:31;100266.06;;;21.06;82.86
59435;BME280;45241;49.768;8.636;2022-10-31T13:53:58;100253.16;;;20.96;85.50
59435;BME280;45241;49.768;8.636;2022-10-31T13:56:25;100252.28;;;21.23;84.92
59435;BME280;45241;49.768;8.636;2022-10-31T13:58:56;100246.31;;;20.94;86.27
59435;BME280;45241;49.768;8.636;2022-10-31T14:01:22;100245.47;;;21.25;85.45
59435;BME280;45241;49.768;8.636;2022-10-31T14:03:58;100243.53;;;20.89;87.67
59435;BME280;45241;49.768;8.636;2022-10-31T14:06:34;100227.94;;;20.79;89.06
59435;BME280;45241;49.768;8.636;2022-10-31T14:08:59;100236.72;;;22.08;82.79
59435;BME280;45241;49.768;8.636;2022-10-31T14:11:26;100219.19;;;23.12;79.11
59435;BME280;45241;49.768;8.636;2022-10-31T14:13:52;100226.53;;;23.52;76.86
59435;BME280;45241;49.768;8.636;2022-10-31T14:16:28;100243.16;;;22.49;77.23
59435;BME280;45241;49.768;8.636;2022-10-31T14:19:02;100262.94;;;21.56;80.90
59435;BME280;45241;49.768;8.636;2022-10-31T14:21:30;100267.00;;;21.22;83.36
59435;BME280;45241;49.768;8.636;2022-10-31T14:23:56;100279.50;;;21.18;84.68
59435;BME280;45241;49.768;8.636;2022-10-31T14:28:51;100279.50;;;21.18;84.58
59435;BME280;45241;49.768;8.636;2022-10-31T14:39:15;100272.09;;;22.40;79.59
59435;BME280;45241;49.768;8.636;2022-10-31T14:44:37;100278.19;;;22.05;80.94
59435;BME280;45241;49.768;8.636;2022-10-31T14:49:49;100287.09;;;20.62;90.86
59435;BME280;45241;49.768;8.636;2022-10-31T14:52:17;100277.00;;;21.43;84.60
59435;BME280;45241;49.768;8.636;2022-10-31T14:54:53;100287.53;;;21.34;85.32
59435;BME280;45241;49.768;8.636;2022-10-31T14:57:20;100288.72;;;21.43;83.60